KAKR/AKR METAR and TAF weather

Enter ICAO airport designator
Station Type Date Time Source
KAKR METAR 2021/07/26 14:54 UTC NOAA

KAKR 261454Z AUTO 29003KT 10SM CLR 29/15 A3001 RMK AO2 SLP151 T02940150 51004


Station Type Date Time Source
KAKR Decoded METAR 2021/07/26 14:54 UTC NOAA

AKRON FULTON INTERNATIONAL, OH, United States (KAKR) 41-02N 081-28W 363M
Jul 26, 2021 - 10:54 AM EDT / 2021.07.26 1454 UTC
Wind: from the WNW (290 degrees) at 3 MPH (3 KT):0
Visibility: 10 mile(s):0
Sky conditions: clear
Temperature: 84.9 F (29.4 C)
Dew Point: 59.0 F (15.0 C)
Relative Humidity: 41%
Pressure (altimeter): 30.01 in. Hg (1016 hPa)
Pressure tendency: 0.01 inches (0.4 hPa) higher than three hours ago
ob: KAKR 261454Z AUTO 29003KT 10SM CLR 29/15 A3001 RMK AO2 SLP151 T02940150 51004
cycle: 15

Station Type Date Time Source
KAKR TAF UTC NOAA

Error!

Example: see airport list